createdAt,value
2016-12-15T00:00:13.125Z,1018.59
2016-12-15T00:01:29.341Z,1018.63
2016-12-15T00:02:46.038Z,1018.59
2016-12-15T00:04:00.312Z,1018.6
2016-12-15T00:05:17.316Z,1018.64
2016-12-15T00:06:31.885Z,1018.63
2016-12-15T00:07:46.231Z,1018.61
2016-12-15T00:08:59.720Z,1018.62
2016-12-15T00:10:15.063Z,1018.65
2016-12-15T00:11:30.596Z,1018.61
2016-12-15T00:12:45.546Z,1018.58
2016-12-15T00:13:58.684Z,1018.63
2016-12-15T00:15:15.415Z,1018.65
2016-12-15T00:16:31.863Z,1018.63
2016-12-15T00:17:48.326Z,1018.6
2016-12-15T00:19:03.229Z,1018.64
2016-12-15T00:20:19.637Z,1018.61
2016-12-15T00:21:35.630Z,1018.61
2016-12-15T00:22:51.375Z,1018.61
2016-12-15T00:24:06.221Z,1018.64
2016-12-15T00:25:18.960Z,1018.64
2016-12-15T00:26:32.155Z,1018.66
2016-12-15T00:27:47.378Z,1018.67
2016-12-15T00:29:02.867Z,1018.65
2016-12-15T00:30:16.346Z,1018.67
2016-12-15T00:31:31.441Z,1018.65
2016-12-15T00:32:45.128Z,1018.66
2016-12-15T00:34:01.208Z,1018.61
2016-12-15T00:35:17.137Z,1018.62
2016-12-15T00:36:34.034Z,1018.61
2016-12-15T00:37:49.311Z,1018.58
2016-12-15T00:39:05.866Z,1018.57
2016-12-15T00:40:22.431Z,1018.57
2016-12-15T00:41:39.002Z,1018.55
2016-12-15T00:42:54.269Z,1018.59
2016-12-15T00:44:09.440Z,1018.61
2016-12-15T00:45:24.584Z,1018.59
2016-12-15T00:46:39.618Z,1018.57
2016-12-15T00:47:56.294Z,1018.59
2016-12-15T00:49:09.375Z,1018.55
2016-12-15T00:50:21.651Z,1018.53
2016-12-15T00:51:37.954Z,1018.51
2016-12-15T00:52:51.359Z,1018.5
2016-12-15T00:54:06.270Z,1018.49
2016-12-15T00:55:21.007Z,1018.55
2016-12-15T00:56:35.935Z,1018.49
2016-12-15T00:57:52.863Z,1018.54
2016-12-15T00:59:08.818Z,1018.54
2016-12-15T01:00:22.137Z,1018.52
2016-12-15T01:01:36.884Z,1018.48
2016-12-15T01:02:51.910Z,1018.49
2016-12-15T01:04:08.473Z,1018.5
2016-12-15T01:05:25.444Z,1018.47
2016-12-15T01:06:42.381Z,1018.5
2016-12-15T01:07:58.946Z,1018.54
2016-12-15T01:09:14.012Z,1018.53
2016-12-15T01:10:28.699Z,1018.55
2016-12-15T01:11:44.850Z,1018.59
2016-12-15T01:12:59.577Z,1018.58
2016-12-15T01:14:15.268Z,1018.56
2016-12-15T01:15:29.971Z,1018.52
2016-12-15T01:16:45.249Z,1018.59
2016-12-15T01:17:59.731Z,1018.56
2016-12-15T01:19:14.151Z,1018.56
2016-12-15T01:20:31.017Z,1018.56
2016-12-15T01:21:46.116Z,1018.58
2016-12-15T01:23:02.407Z,1018.52
2016-12-15T01:24:17.344Z,1018.54
2016-12-15T01:25:33.348Z,1018.56
2016-12-15T01:26:50.233Z,1018.54
2016-12-15T01:28:03.639Z,1018.53
2016-12-15T01:29:19.943Z,1018.58
2016-12-15T01:30:34.913Z,1018.55
2016-12-15T01:31:48.543Z,1018.54
2016-12-15T01:33:04.188Z,1018.54
2016-12-15T01:34:19.538Z,1018.55
2016-12-15T01:35:36.480Z,1018.53
2016-12-15T01:36:52.977Z,1018.59
2016-12-15T01:38:06.198Z,1018.61
2016-12-15T01:39:21.328Z,1018.59
2016-12-15T01:40:36.674Z,1018.6
2016-12-15T01:41:52.167Z,1018.62
2016-12-15T01:43:07.264Z,1018.68
2016-12-15T01:44:23.367Z,1018.71
2016-12-15T01:45:38.214Z,1018.65
2016-12-15T01:46:51.757Z,1018.64
2016-12-15T01:48:07.921Z,1018.68
2016-12-15T01:49:24.371Z,1018.64
2016-12-15T01:50:39.082Z,1018.62
2016-12-15T01:51:52.613Z,1018.62
2016-12-15T01:53:08.706Z,1018.66
2016-12-15T01:54:20.542Z,1018.64
2016-12-15T01:55:35.554Z,1018.6
2016-12-15T01:56:49.581Z,1018.61
2016-12-15T01:58:05.582Z,1018.6
2016-12-15T01:59:21.727Z,1018.65
2016-12-15T02:00:34.877Z,1018.6
2016-12-15T02:01:49.985Z,1018.62
2016-12-15T02:03:04.824Z,1018.6
2016-12-15T02:04:19.562Z,1018.57
2016-12-15T02:05:34.016Z,1018.56
2016-12-15T02:06:48.329Z,1018.58
2016-12-15T02:08:03.426Z,1018.57
2016-12-15T02:09:19.739Z,1018.6
2016-12-15T02:10:32.787Z,1018.62
2016-12-15T02:11:46.120Z,1018.63
2016-12-15T02:13:00.147Z,1018.66
2016-12-15T02:14:16.706Z,1018.58
2016-12-15T02:15:30.749Z,1018.61
2016-12-15T02:16:45.092Z,1018.6
2016-12-15T02:17:58.145Z,1018.59
2016-12-15T02:19:12.166Z,1018.64
2016-12-15T02:20:28.617Z,1018.65
2016-12-15T02:21:43.443Z,1018.66
2016-12-15T02:22:57.943Z,1018.71
2016-12-15T02:24:10.601Z,1018.68
2016-12-15T02:25:26.495Z,1018.69
2016-12-15T02:26:39.876Z,1018.72
2016-12-15T02:27:54.816Z,1018.7
2016-12-15T02:29:10.515Z,1018.74
2016-12-15T02:30:23.382Z,1018.75
2016-12-15T02:31:38.684Z,1018.77
2016-12-15T02:32:53.070Z,1018.76
2016-12-15T02:34:09.577Z,1018.76
2016-12-15T02:35:22.420Z,1018.72
2016-12-15T02:36:37.491Z,1018.72
2016-12-15T02:37:53.890Z,1018.71
2016-12-15T02:39:08.612Z,1018.7
2016-12-15T02:40:24.964Z,1018.72
2016-12-15T02:41:39.353Z,1018.69
2016-12-15T02:42:54.992Z,1018.7
2016-12-15T02:44:10.168Z,1018.69
2016-12-15T02:45:26.080Z,1018.71
2016-12-15T02:46:38.183Z,1018.68
2016-12-15T02:47:52.819Z,1018.66
2016-12-15T02:49:09.380Z,1018.69
2016-12-15T02:50:25.329Z,1018.69
2016-12-15T02:51:41.723Z,1018.71
2016-12-15T02:52:57.629Z,1018.69
2016-12-15T02:54:11.088Z,1018.73
2016-12-15T02:55:25.456Z,1018.68
2016-12-15T02:56:38.705Z,1018.73
2016-12-15T02:57:55.444Z,1018.7
2016-12-15T02:59:11.799Z,1018.71
2016-12-15T03:00:28.543Z,1018.68
2016-12-15T03:01:38.978Z,1018.66
2016-12-15T03:02:53.280Z,1018.67
2016-12-15T03:04:04.753Z,1018.66
2016-12-15T03:05:20.159Z,1018.65
2016-12-15T03:06:35.918Z,1018.67
2016-12-15T03:07:52.069Z,1018.72
2016-12-15T03:09:05.240Z,1018.66
2016-12-15T03:10:21.589Z,1018.69
2016-12-15T03:11:38.124Z,1018.67
2016-12-15T03:12:51.257Z,1018.66
2016-12-15T03:14:07.406Z,1018.64
2016-12-15T03:15:24.147Z,1018.62
2016-12-15T03:16:40.304Z,1018.66
2016-12-15T03:17:55.054Z,1018.63
2016-12-15T03:19:10.796Z,1018.6
2016-12-15T03:20:23.785Z,1018.6
2016-12-15T03:21:39.852Z,1018.62
2016-12-15T03:22:55.590Z,1018.61
2016-12-15T03:24:11.110Z,1018.6
2016-12-15T03:25:25.744Z,1018.63
2016-12-15T03:26:39.151Z,1018.62
2016-12-15T03:27:54.757Z,1018.61
2016-12-15T03:29:11.484Z,1018.63
2016-12-15T03:30:26.245Z,1018.65
2016-12-15T03:31:39.602Z,1018.62
2016-12-15T03:32:53.923Z,1018.65
2016-12-15T03:34:09.175Z,1018.68
2016-12-15T03:35:24.991Z,1018.68
2016-12-15T03:36:40.888Z,1018.69
2016-12-15T03:37:54.817Z,1018.67
2016-12-15T03:39:09.490Z,1018.69
2016-12-15T03:40:24.725Z,1018.7
2016-12-15T03:41:41.220Z,1018.73
2016-12-15T03:42:55.891Z,1018.7
2016-12-15T03:44:12.782Z,1018.74
2016-12-15T03:45:29.350Z,1018.71
2016-12-15T03:46:42.471Z,1018.69
2016-12-15T03:47:57.301Z,1018.66
2016-12-15T03:49:13.591Z,1018.64
2016-12-15T03:50:28.207Z,1018.64
2016-12-15T03:51:42.868Z,1018.6
2016-12-15T03:52:58.691Z,1018.61
2016-12-15T03:54:12.294Z,1018.6
2016-12-15T03:55:26.460Z,1018.61
2016-12-15T03:56:42.829Z,1018.62
2016-12-15T03:57:58.917Z,1018.6
2016-12-15T03:59:14.298Z,1018.57
2016-12-15T04:00:27.129Z,1018.61
2016-12-15T04:01:40.120Z,1018.61
2016-12-15T04:02:52.872Z,1018.64
2016-12-15T04:04:08.985Z,1018.63
2016-12-15T04:05:23.837Z,1018.62
2016-12-15T04:06:37.455Z,1018.59
2016-12-15T04:07:50.602Z,1018.57
2016-12-15T04:09:03.808Z,1018.57
2016-12-15T04:10:18.604Z,1018.57
2016-12-15T04:11:33.242Z,1018.58
2016-12-15T04:12:49.594Z,1018.55
2016-12-15T04:14:05.477Z,1018.58
2016-12-15T04:15:19.520Z,1018.56
2016-12-15T04:16:34.998Z,1018.56
2016-12-15T04:17:49.618Z,1018.54
2016-12-15T04:19:04.328Z,1018.53
2016-12-15T04:20:20.057Z,1018.57
2016-12-15T04:21:34.685Z,1018.56
2016-12-15T04:22:47.473Z,1018.57
2016-12-15T04:24:03.515Z,1018.55
2016-12-15T04:25:20.223Z,1018.56
2016-12-15T04:26:36.552Z,1018.59
2016-12-15T04:27:51.699Z,1018.57
2016-12-15T04:29:06.530Z,1018.6
2016-12-15T04:30:20.143Z,1018.56
2016-12-15T04:31:36.470Z,1018.56
2016-12-15T04:32:50.013Z,1018.55
2016-12-15T04:34:04.914Z,1018.55
2016-12-15T04:35:18.825Z,1018.56
2016-12-15T04:36:35.224Z,1018.54
2016-12-15T04:37:48.481Z,1018.55
2016-12-15T04:39:03.071Z,1018.51
2016-12-15T04:40:19.131Z,1018.5
2016-12-15T04:41:32.607Z,1018.49
2016-12-15T04:42:49.083Z,1018.48
2016-12-15T04:44:02.054Z,1018.5
2016-12-15T04:45:15.111Z,1018.51
2016-12-15T04:46:30.235Z,1018.52
2016-12-15T04:47:44.601Z,1018.52
2016-12-15T04:48:59.369Z,1018.5
2016-12-15T04:50:15.528Z,1018.53
2016-12-15T04:51:32.107Z,1018.53
2016-12-15T04:52:45.556Z,1018.56
2016-12-15T04:54:02.200Z,1018.57
2016-12-15T04:55:16.209Z,1018.59
2016-12-15T04:56:29.207Z,1018.61
2016-12-15T04:57:45.668Z,1018.59
2016-12-15T04:58:59.533Z,1018.59
2016-12-15T05:00:14.794Z,1018.61
2016-12-15T05:01:29.828Z,1018.62
2016-12-15T05:02:44.529Z,1018.6
2016-12-15T05:03:59.514Z,1018.61
2016-12-15T05:05:15.845Z,1018.61
2016-12-15T05:06:30.860Z,1018.61
2016-12-15T05:07:44.909Z,1018.61
2016-12-15T05:08:59.502Z,1018.62
2016-12-15T05:10:11.488Z,1018.6
2016-12-15T05:11:27.075Z,1018.59
2016-12-15T05:12:43.369Z,1018.54
2016-12-15T05:13:59.498Z,1018.58
2016-12-15T05:15:15.583Z,1018.59
2016-12-15T05:16:29.356Z,1018.56
2016-12-15T05:17:43.782Z,1018.6
2016-12-15T05:18:58.329Z,1018.62
2016-12-15T05:20:12.259Z,1018.64
2016-12-15T05:21:26.607Z,1018.63
2016-12-15T05:22:41.465Z,1018.65
2016-12-15T05:23:53.532Z,1018.68
2016-12-15T05:25:08.170Z,1018.68
2016-12-15T05:26:21.232Z,1018.67
2016-12-15T05:27:37.559Z,1018.68
2016-12-15T05:28:53.761Z,1018.68
2016-12-15T05:30:06.971Z,1018.72
2016-12-15T05:31:23.876Z,1018.75
2016-12-15T05:32:40.074Z,1018.71
2016-12-15T05:33:56.389Z,1018.71
2016-12-15T05:35:12.443Z,1018.72
2016-12-15T05:36:25.844Z,1018.76
2016-12-15T05:37:42.713Z,1018.8
2016-12-15T05:38:56.511Z,1018.76
2016-12-15T05:40:09.754Z,1018.75
2016-12-15T05:41:23.167Z,1018.76
2016-12-15T05:42:36.822Z,1018.77
2016-12-15T05:43:51.644Z,1018.72
2016-12-15T05:45:05.943Z,1018.75
2016-12-15T05:46:17.699Z,1018.76
2016-12-15T05:47:32.436Z,1018.75
2016-12-15T05:48:49.285Z,1018.79
2016-12-15T05:50:04.372Z,1018.76
2016-12-15T05:51:20.432Z,1018.82
2016-12-15T05:52:33.573Z,1018.79
2016-12-15T05:53:47.047Z,1018.81
2016-12-15T05:55:02.209Z,1018.84
2016-12-15T05:56:14.077Z,1018.84
2016-12-15T05:57:30.658Z,1018.84
2016-12-15T05:58:43.903Z,1018.87
2016-12-15T06:00:00.373Z,1018.88
2016-12-15T06:01:14.205Z,1018.86
2016-12-15T06:02:29.211Z,1018.82
2016-12-15T06:03:42.590Z,1018.81
2016-12-15T06:04:57.729Z,1018.85
2016-12-15T06:06:12.708Z,1018.81
2016-12-15T06:07:27.054Z,1018.77
2016-12-15T06:08:40.533Z,1018.78
2016-12-15T06:09:56.958Z,1018.79
2016-12-15T06:11:11.882Z,1018.8
2016-12-15T06:12:26.318Z,1018.81
2016-12-15T06:13:42.680Z,1018.77
2016-12-15T06:14:59.568Z,1018.77
2016-12-15T06:16:14.823Z,1018.77
2016-12-15T06:17:28.149Z,1018.8
2016-12-15T06:18:42.451Z,1018.81
2016-12-15T06:19:57.805Z,1018.84
2016-12-15T06:21:14.524Z,1018.85
2016-12-15T06:22:31.075Z,1018.82
2016-12-15T06:23:47.914Z,1018.83
2016-12-15T06:24:59.869Z,1018.89
2016-12-15T06:26:15.870Z,1018.9
2016-12-15T06:27:30.703Z,1018.89
2016-12-15T06:28:45.790Z,1018.89
2016-12-15T06:30:00.547Z,1018.89
2016-12-15T06:31:16.870Z,1018.9
2016-12-15T06:32:31.808Z,1018.92
2016-12-15T06:33:48.322Z,1018.91
2016-12-15T06:35:01.943Z,1018.91
2016-12-15T06:36:16.816Z,1018.92
2016-12-15T06:37:33.023Z,1018.96
2016-12-15T06:38:47.984Z,1018.98
2016-12-15T06:40:02.957Z,1018.93
2016-12-15T06:41:17.525Z,1019
2016-12-15T06:42:32.638Z,1018.99
2016-12-15T06:43:44.695Z,1018.99
2016-12-15T06:44:58.634Z,1019.05
2016-12-15T06:46:14.029Z,1019.01
2016-12-15T06:47:27.919Z,1019.01
2016-12-15T06:48:41.158Z,1019.02
2016-12-15T06:49:56.414Z,1019.02
2016-12-15T06:51:11.081Z,1019.03
2016-12-15T06:52:27.240Z,1019.06
2016-12-15T06:53:38.841Z,1019.01
2016-12-15T06:54:55.301Z,1019.06
2016-12-15T06:56:11.767Z,1019.05
2016-12-15T06:57:28.190Z,1019.05
2016-12-15T06:58:42.567Z,1019.01
2016-12-15T06:59:55.768Z,1019.03
2016-12-15T07:01:11.291Z,1019.05
2016-12-15T07:02:25.563Z,1019.05
2016-12-15T07:03:40.252Z,1019.05
2016-12-15T07:04:54.916Z,1019.06
2016-12-15T07:06:09.108Z,1019.04
2016-12-15T07:07:25.246Z,1019.07
2016-12-15T07:08:41.568Z,1019.07
2016-12-15T07:09:57.855Z,1019.07
2016-12-15T07:11:12.743Z,1019.08
2016-12-15T07:12:27.805Z,1019.09
2016-12-15T07:13:42.144Z,1019.1
2016-12-15T07:14:56.961Z,1019.09
2016-12-15T07:16:13.456Z,1019.1
2016-12-15T07:17:28.166Z,1019.13
2016-12-15T07:18:44.751Z,1019.11
2016-12-15T07:20:01.064Z,1019.14
2016-12-15T07:21:15.822Z,1019.14
2016-12-15T07:22:31.001Z,1019.13
2016-12-15T07:23:44.476Z,1019.15
2016-12-15T07:25:00.534Z,1019.11
2016-12-15T07:26:16.014Z,1019.11
2016-12-15T07:27:30.860Z,1019.13
2016-12-15T07:28:44.009Z,1019.11
2016-12-15T07:29:57.420Z,1019.11
2016-12-15T07:31:13.479Z,1019.1
2016-12-15T07:32:28.308Z,1019.08
2016-12-15T07:33:45.274Z,1019.09
2016-12-15T07:35:01.198Z,1019.12
2016-12-15T07:36:14.445Z,1019.06
2016-12-15T07:37:29.329Z,1019.08
2016-12-15T07:38:45.856Z,1019.06
2016-12-15T07:39:58.929Z,1019.05
2016-12-15T07:41:15.313Z,1019.08
2016-12-15T07:42:31.619Z,1019.08
2016-12-15T07:43:46.616Z,1019.09
2016-12-15T07:45:02.624Z,1019.14
2016-12-15T07:46:18.155Z,1019.14
2016-12-15T07:47:35.201Z,1019.09
2016-12-15T07:48:50.746Z,1019.15
2016-12-15T07:50:05.759Z,1019.17
2016-12-15T07:51:20.386Z,1019.15
2016-12-15T07:52:35.212Z,1019.18
2016-12-15T07:53:51.562Z,1019.19
2016-12-15T07:55:06.800Z,1019.17
2016-12-15T07:56:22.159Z,1019.22
2016-12-15T07:57:37.051Z,1019.22
2016-12-15T07:58:53.346Z,1019.22
2016-12-15T08:00:08.704Z,1019.19
2016-12-15T08:01:23.461Z,1019.19
2016-12-15T08:02:39.521Z,1019.24
2016-12-15T08:03:56.623Z,1019.2
2016-12-15T08:05:12.353Z,1019.24
2016-12-15T08:06:26.779Z,1019.22
2016-12-15T08:07:43.101Z,1019.23
2016-12-15T08:08:59.707Z,1019.23
2016-12-15T08:10:15.873Z,1019.28
2016-12-15T08:11:30.624Z,1019.25
2016-12-15T08:12:46.995Z,1019.26
2016-12-15T08:14:00.491Z,1019.27
2016-12-15T08:15:15.916Z,1019.25
2016-12-15T08:16:29.133Z,1019.27
2016-12-15T08:17:42.380Z,1019.29
2016-12-15T08:18:57.921Z,1019.26
2016-12-15T08:20:14.391Z,1019.28
2016-12-15T08:21:30.826Z,1019.29
2016-12-15T08:22:47.440Z,1019.31
2016-12-15T08:24:01.139Z,1019.33
2016-12-15T08:25:15.822Z,1019.32
2016-12-15T08:26:31.083Z,1019.37
2016-12-15T08:27:47.544Z,1019.33
2016-12-15T08:29:02.482Z,1019.39
2016-12-15T08:30:17.784Z,1019.41
2016-12-15T08:31:31.289Z,1019.44
2016-12-15T08:32:47.624Z,1019.46
2016-12-15T08:34:04.361Z,1019.44
2016-12-15T08:35:19.250Z,1019.42
2016-12-15T08:36:32.740Z,1019.46
2016-12-15T08:37:49.209Z,1019.47
2016-12-15T08:39:03.267Z,1019.5
2016-12-15T08:40:17.489Z,1019.48
2016-12-15T08:41:32.776Z,1019.46
2016-12-15T08:42:45.801Z,1019.47
2016-12-15T08:44:00.244Z,1019.49
2016-12-15T08:45:16.673Z,1019.49
2016-12-15T08:46:32.103Z,1019.54
2016-12-15T08:47:47.639Z,1019.53
2016-12-15T08:49:03.840Z,1019.55
2016-12-15T08:50:20.030Z,1019.52
2016-12-15T08:51:34.789Z,1019.52
2016-12-15T08:52:49.396Z,1019.59
2016-12-15T08:54:02.559Z,1019.52
2016-12-15T08:55:18.683Z,1019.57
2016-12-15T08:56:32.695Z,1019.55
2016-12-15T08:57:47.944Z,1019.5
2016-12-15T08:59:02.228Z,1019.51
2016-12-15T09:00:17.354Z,1019.52
2016-12-15T09:01:32.901Z,1019.55
2016-12-15T09:02:49.400Z,1019.55
2016-12-15T09:04:05.741Z,1019.56
2016-12-15T09:05:21.638Z,1019.55
2016-12-15T09:06:36.339Z,1019.58
2016-12-15T09:07:52.433Z,1019.61
2016-12-15T09:09:08.706Z,1019.54
2016-12-15T09:10:24.215Z,1019.64
2016-12-15T09:11:40.575Z,1019.59
2016-12-15T09:12:56.618Z,1019.58
2016-12-15T09:14:12.778Z,1019.6
2016-12-15T09:15:28.844Z,1019.6
2016-12-15T09:16:42.395Z,1019.61
2016-12-15T09:17:57.722Z,1019.6
2016-12-15T09:19:11.818Z,1019.62
2016-12-15T09:20:26.168Z,1019.61
2016-12-15T09:21:39.395Z,1019.71
2016-12-15T09:22:56.286Z,1019.63
2016-12-15T09:24:10.906Z,1019.62
2016-12-15T09:25:25.305Z,1019.61
2016-12-15T09:26:40.366Z,1019.58
2016-12-15T09:27:55.195Z,1019.64
2016-12-15T09:29:10.202Z,1019.64
2016-12-15T09:30:26.923Z,1019.59
2016-12-15T09:31:43.230Z,1019.63
2016-12-15T09:32:56.859Z,1019.6
2016-12-15T09:34:11.638Z,1019.62
2016-12-15T09:35:26.320Z,1019.63
2016-12-15T09:36:42.384Z,1019.59
2016-12-15T09:37:58.765Z,1019.54
2016-12-15T09:39:10.612Z,1019.58
2016-12-15T09:40:26.130Z,1019.57
2016-12-15T09:41:42.460Z,1019.57
2016-12-15T09:42:58.612Z,1019.53
2016-12-15T09:44:14.921Z,1019.62
2016-12-15T09:45:29.090Z,1019.58
2016-12-15T09:46:45.239Z,1019.64
2016-12-15T09:48:01.585Z,1019.58
2016-12-15T09:49:17.336Z,1019.67
2016-12-15T09:50:34.217Z,1019.66
2016-12-15T09:51:48.862Z,1019.64
2016-12-15T09:53:04.195Z,1019.65
2016-12-15T09:54:17.198Z,1019.7
2016-12-15T09:55:32.726Z,1019.61
2016-12-15T09:56:49.483Z,1019.65
2016-12-15T09:58:04.737Z,1019.64
2016-12-15T09:59:19.128Z,1019.68
2016-12-15T10:00:34.417Z,1019.6
2016-12-15T10:01:49.058Z,1019.6
2016-12-15T10:03:04.126Z,1019.64
2016-12-15T10:04:16.804Z,1019.6
2016-12-15T10:05:32.049Z,1019.64
2016-12-15T10:06:48.668Z,1019.58
2016-12-15T10:08:04.609Z,1019.58
2016-12-15T10:09:21.049Z,1019.66
2016-12-15T10:10:37.443Z,1019.65
2016-12-15T10:11:52.119Z,1019.59
2016-12-15T10:13:07.294Z,1019.65
2016-12-15T10:14:20.574Z,1019.65
2016-12-15T10:15:35.331Z,1019.6
2016-12-15T10:16:49.176Z,1019.6
2016-12-15T10:18:06.193Z,1019.53
2016-12-15T10:19:20.785Z,1019.56
2016-12-15T10:20:35.378Z,1019.54
2016-12-15T10:21:51.734Z,1019.52
2016-12-15T10:23:06.424Z,1019.49
2016-12-15T10:24:22.170Z,1019.48
2016-12-15T10:25:38.450Z,1019.47
2016-12-15T10:26:54.013Z,1019.46
